Estación Meteorológica Peña el Pijo (Robertgarden) [ 07/23/19 00:26:54 CEST ]

Fecha Hora Presion(HPa) Temp (°C) Humedad % Rocio (°C) Viento ( m/s) Direccion Lluvia 1Hora(mm) Lluvia 24H(mm) LLuvia Total(mm)
2019-Jun-14 01:01:55 1004.600 16.2 68 10.3         325.82
2019-Jun-14 02:01:45 1004.600 15.8 70 10.4         325.82
2019-Jun-14 03:06:11 1003.900 15.9 71 10.7         325.82
2019-Jun-14 04:01:57 1003.600 16.1 71 10.9         325.82
2019-Jun-14 05:01:56 1004.700 16.1 63 9.1 3.2 N 1.03 1.03 326.85
2019-Jun-14 06:01:46 1004.400 11.5 78 7.8     3.10 4.14 329.96
2019-Jun-14 07:01:55 1004.700 11.2 83 8.4     0.51 4.66 330.48
2019-Jun-14 08:01:46 1005.000 11.9 83 9.1       4.66 330.48
2019-Jun-14 09:02:03 1005.400 13.4 78 9.6       4.66 330.48
2019-Jun-14 10:01:51 1005.900 18.2 63 11.0       4.66 330.48
2019-Jun-14 11:01:37 1005.800 21.0 52 10.8       4.66 330.48
2019-Jun-14 12:01:43 1005.900 23.5 41 9.5       4.66 330.48
2019-Jun-14 13:01:46 1005.700 25.5 35 8.8       4.66 330.48
2019-Jun-14 14:01:48 1005.400 28.9 30 9.6       4.66 330.48
2019-Jun-14 15:01:44 1005.500 30.0 24 7.0       4.66 330.48
2019-Jun-14 16:01:49 1005.500 30.9 25 8.4       4.66 330.48
2019-Jun-14 17:01:54 1005.400 29.1 28 8.6       4.66 330.48
2019-Jun-14 18:01:36 1005.600 28.1 27 7.1 1.8 WNW   4.66 330.48
2019-Jun-14 19:01:46 1005.800 26.3 30 7.4       4.66 330.48
2019-Jun-14 20:01:35 1006.500 23.3 37 7.7       4.66 330.48
2019-Jun-14 21:01:33 1007.300 19.9 42 6.6       4.66 330.48
2019-Jun-14 22:01:56 1008.100 17.8 45 5.6       4.66 330.48
2019-Jun-14 23:02:15 1009.200 15.4 50 5.1       4.66 330.48

Temperatura Máxima:30°    Temperatura Mínima:11°
Presión Máxima:1009.200 Hpa    Presión Mínima:1003.600 Hpa


Volver